sensor_id;sensor_type;location;lat;lon;timestamp;temperature;humidity
16064;DHT22;8136;53.172;8.256;2023-07-20T00:01:35;15.90;99.90
16064;DHT22;8136;53.172;8.256;2023-07-20T00:04:03;15.90;99.90
16064;DHT22;8136;53.172;8.256;2023-07-20T00:06:30;15.80;99.90
16064;DHT22;8136;53.172;8.256;2023-07-20T00:08:57;15.80;99.90
16064;DHT22;8136;53.172;8.256;2023-07-20T00:11:26;15.80;99.90
16064;DHT22;8136;53.172;8.256;2023-07-20T00:13:55;15.90;99.90
16064;DHT22;8136;53.172;8.256;2023-07-20T00:16:21;15.90;99.90
16064;DHT22;8136;53.172;8.256;2023-07-20T00:18:48;16.00;99.90
16064;DHT22;8136;53.172;8.256;2023-07-20T00:21:15;16.00;99.90
16064;DHT22;8136;53.172;8.256;2023-07-20T00:23:42;16.00;99.90
16064;DHT22;8136;53.172;8.256;2023-07-20T00:26:09;16.00;99.90
16064;DHT22;8136;53.172;8.256;2023-07-20T00:28:35;16.00;99.90
16064;DHT22;8136;53.172;8.256;2023-07-20T00:31:04;16.00;99.90
16064;DHT22;8136;53.172;8.256;2023-07-20T00:33:31;16.00;99.90
16064;DHT22;8136;53.172;8.256;2023-07-20T00:35:58;16.00;99.90
16064;DHT22;8136;53.172;8.256;2023-07-20T00:38:24;16.00;99.90
16064;DHT22;8136;53.172;8.256;2023-07-20T00:40:51;16.00;99.90
16064;DHT22;8136;53.172;8.256;2023-07-20T00:43:18;16.10;99.90
16064;DHT22;8136;53.172;8.256;2023-07-20T00:45:45;16.10;99.90
16064;DHT22;8136;53.172;8.256;2023-07-20T00:48:14;16.10;99.90
16064;DHT22;8136;53.172;8.256;2023-07-20T00:50:41;16.10;99.90
16064;DHT22;8136;53.172;8.256;2023-07-20T00:53:08;16.10;99.90
16064;DHT22;8136;53.172;8.256;2023-07-20T00:55:35;16.00;99.90
16064;DHT22;8136;53.172;8.256;2023-07-20T00:58:02;16.00;99.90
16064;DHT22;8136;53.172;8.256;2023-07-20T01:00:30;16.10;99.90
16064;DHT22;8136;53.172;8.256;2023-07-20T01:02:56;16.10;99.90
16064;DHT22;8136;53.172;8.256;2023-07-20T01:05:34;16.10;99.90
16064;DHT22;8136;53.172;8.256;2023-07-20T01:08:07;16.10;99.90
16064;DHT22;8136;53.172;8.256;2023-07-20T01:10:39;16.20;99.90
16064;DHT22;8136;53.172;8.256;2023-07-20T01:13:09;16.30;99.90
16064;DHT22;8136;53.172;8.256;2023-07-20T01:15:36;16.20;99.90
16064;DHT22;8136;53.172;8.256;2023-07-20T01:18:03;16.20;99.90
16064;DHT22;8136;53.172;8.256;2023-07-20T01:20:35;16.10;99.90
16064;DHT22;8136;53.172;8.256;2023-07-20T01:23:25;16.10;99.90
16064;DHT22;8136;53.172;8.256;2023-07-20T01:26:21;16.00;99.90
16064;DHT22;8136;53.172;8.256;2023-07-20T01:29:11;15.90;99.90
16064;DHT22;8136;53.172;8.256;2023-07-20T01:31:44;15.90;99.90
16064;DHT22;8136;53.172;8.256;2023-07-20T01:34:15;15.90;99.90
16064;DHT22;8136;53.172;8.256;2023-07-20T01:36:48;15.90;99.90
16064;DHT22;8136;53.172;8.256;2023-07-20T01:39:17;15.90;99.90
16064;DHT22;8136;53.172;8.256;2023-07-20T01:41:45;15.90;99.90
16064;DHT22;8136;53.172;8.256;2023-07-20T01:44:12;15.80;99.90
16064;DHT22;8136;53.172;8.256;2023-07-20T01:46:39;15.80;99.90
16064;DHT22;8136;53.172;8.256;2023-07-20T01:49:07;15.80;99.90
16064;DHT22;8136;53.172;8.256;2023-07-20T01:51:36;15.80;99.90
16064;DHT22;8136;53.172;8.256;2023-07-20T01:54:02;15.80;99.90
16064;DHT22;8136;53.172;8.256;2023-07-20T01:56:29;15.90;99.90
16064;DHT22;8136;53.172;8.256;2023-07-20T01:58:56;15.90;99.90
16064;DHT22;8136;53.172;8.256;2023-07-20T02:01:23;15.90;99.90
16064;DHT22;8136;53.172;8.256;2023-07-20T02:03:49;15.80;99.90
16064;DHT22;8136;53.172;8.256;2023-07-20T02:06:18;15.90;99.90
16064;DHT22;8136;53.172;8.256;2023-07-20T02:08:44;15.90;99.90
16064;DHT22;8136;53.172;8.256;2023-07-20T02:11:11;15.90;99.90
16064;DHT22;8136;53.172;8.256;2023-07-20T02:13:38;15.90;99.90
16064;DHT22;8136;53.172;8.256;2023-07-20T02:16:12;15.90;99.90
16064;DHT22;8136;53.172;8.256;2023-07-20T02:18:39;15.90;99.90
16064;DHT22;8136;53.172;8.256;2023-07-20T02:21:06;15.90;99.90
16064;DHT22;8136;53.172;8.256;2023-07-20T02:23:34;15.80;99.90
16064;DHT22;8136;53.172;8.256;2023-07-20T02:26:00;15.80;99.90
16064;DHT22;8136;53.172;8.256;2023-07-20T02:28:29;15.90;99.90
16064;DHT22;8136;53.172;8.256;2023-07-20T02:30:56;15.80;99.90
16064;DHT22;8136;53.172;8.256;2023-07-20T02:33:23;15.80;99.90
16064;DHT22;8136;53.172;8.256;2023-07-20T02:35:50;15.80;99.90
16064;DHT22;8136;53.172;8.256;2023-07-20T02:38:17;15.80;99.90
16064;DHT22;8136;53.172;8.256;2023-07-20T02:40:45;15.80;99.90
16064;DHT22;8136;53.172;8.256;2023-07-20T02:43:12;15.80;99.90
16064;DHT22;8136;53.172;8.256;2023-07-20T02:45:41;15.80;99.90
16064;DHT22;8136;53.172;8.256;2023-07-20T02:48:09;15.80;99.90
16064;DHT22;8136;53.172;8.256;2023-07-20T02:50:36;15.80;99.90
16064;DHT22;8136;53.172;8.256;2023-07-20T02:53:02;15.80;99.90
16064;DHT22;8136;53.172;8.256;2023-07-20T02:55:29;15.80;99.90
16064;DHT22;8136;53.172;8.256;2023-07-20T02:57:58;15.80;99.90
16064;DHT22;8136;53.172;8.256;2023-07-20T03:00:24;15.80;99.90
16064;DHT22;8136;53.172;8.256;2023-07-20T03:02:51;15.80;99.90
16064;DHT22;8136;53.172;8.256;2023-07-20T03:05:21;15.70;99.90
16064;DHT22;8136;53.172;8.256;2023-07-20T03:07:48;15.70;99.90
16064;DHT22;8136;53.172;8.256;2023-07-20T03:10:15;15.70;99.90
16064;DHT22;8136;53.172;8.256;2023-07-20T03:12:42;15.70;99.90
16064;DHT22;8136;53.172;8.256;2023-07-20T03:15:11;15.70;99.90
16064;DHT22;8136;53.172;8.256;2023-07-20T03:17:38;15.70;99.90
16064;DHT22;8136;53.172;8.256;2023-07-20T03:20:05;15.70;99.90
16064;DHT22;8136;53.172;8.256;2023-07-20T03:22:34;15.70;99.90
16064;DHT22;8136;53.172;8.256;2023-07-20T03:25:01;15.70;99.90
16064;DHT22;8136;53.172;8.256;2023-07-20T03:27:28;15.70;99.90
16064;DHT22;8136;53.172;8.256;2023-07-20T03:29:55;15.70;99.90
16064;DHT22;8136;53.172;8.256;2023-07-20T03:32:23;15.70;99.90
16064;DHT22;8136;53.172;8.256;2023-07-20T03:34:50;15.60;99.90
16064;DHT22;8136;53.172;8.256;2023-07-20T03:37:16;15.60;99.90
16064;DHT22;8136;53.172;8.256;2023-07-20T03:39:43;15.60;99.90
16064;DHT22;8136;53.172;8.256;2023-07-20T03:42:10;15.60;99.90
16064;DHT22;8136;53.172;8.256;2023-07-20T03:44:37;15.50;99.90
16064;DHT22;8136;53.172;8.256;2023-07-20T03:47:04;15.50;99.90
16064;DHT22;8136;53.172;8.256;2023-07-20T03:49:33;15.50;99.90
16064;DHT22;8136;53.172;8.256;2023-07-20T03:52:00;15.50;99.90
16064;DHT22;8136;53.172;8.256;2023-07-20T03:54:28;15.40;99.90
16064;DHT22;8136;53.172;8.256;2023-07-20T03:56:55;15.40;99.90
16064;DHT22;8136;53.172;8.256;2023-07-20T03:59:25;15.40;99.90
16064;DHT22;8136;53.172;8.256;2023-07-20T04:01:51;15.40;99.90
16064;DHT22;8136;53.172;8.256;2023-07-20T04:04:21;15.40;99.90
16064;DHT22;8136;53.172;8.256;2023-07-20T04:06:49;15.40;99.90
16064;DHT22;8136;53.172;8.256;2023-07-20T04:09:16;15.30;99.90
16064;DHT22;8136;53.172;8.256;2023-07-20T04:11:43;15.40;99.90
16064;DHT22;8136;53.172;8.256;2023-07-20T04:14:09;15.30;99.90
16064;DHT22;8136;53.172;8.256;2023-07-20T04:16:36;15.30;99.90
16064;DHT22;8136;53.172;8.256;2023-07-20T04:19:03;15.30;99.90
16064;DHT22;8136;53.172;8.256;2023-07-20T04:21:30;15.20;99.90
16064;DHT22;8136;53.172;8.256;2023-07-20T04:23:58;15.20;99.90
16064;DHT22;8136;53.172;8.256;2023-07-20T04:26:25;15.20;99.90
16064;DHT22;8136;53.172;8.256;2023-07-20T04:28:52;15.10;99.90
16064;DHT22;8136;53.172;8.256;2023-07-20T04:31:19;15.10;99.90
16064;DHT22;8136;53.172;8.256;2023-07-20T04:33:46;15.20;99.90
16064;DHT22;8136;53.172;8.256;2023-07-20T04:36:13;15.20;99.90
16064;DHT22;8136;53.172;8.256;2023-07-20T04:38:41;15.20;99.90
16064;DHT22;8136;53.172;8.256;2023-07-20T04:41:09;15.20;99.90
16064;DHT22;8136;53.172;8.256;2023-07-20T04:43:41;15.20;99.90
16064;DHT22;8136;53.172;8.256;2023-07-20T04:46:09;15.20;99.90
16064;DHT22;8136;53.172;8.256;2023-07-20T04:48:36;15.20;99.90
16064;DHT22;8136;53.172;8.256;2023-07-20T04:51:03;15.20;99.90
16064;DHT22;8136;53.172;8.256;2023-07-20T04:53:30;15.20;99.90
16064;DHT22;8136;53.172;8.256;2023-07-20T04:55:57;15.20;99.90
16064;DHT22;8136;53.172;8.256;2023-07-20T04:58:26;15.20;99.90
16064;DHT22;8136;53.172;8.256;2023-07-20T05:00:53;15.30;99.90
16064;DHT22;8136;53.172;8.256;2023-07-20T05:03:20;15.30;99.90
16064;DHT22;8136;53.172;8.256;2023-07-20T05:05:49;15.30;99.90
16064;DHT22;8136;53.172;8.256;2023-07-20T05:08:16;15.30;99.90
16064;DHT22;8136;53.172;8.256;2023-07-20T05:10:43;15.40;99.90
16064;DHT22;8136;53.172;8.256;2023-07-20T05:13:10;15.40;99.90
16064;DHT22;8136;53.172;8.256;2023-07-20T05:15:38;15.40;99.90
16064;DHT22;8136;53.172;8.256;2023-07-20T05:18:05;15.40;99.90
16064;DHT22;8136;53.172;8.256;2023-07-20T05:20:32;15.50;99.90
16064;DHT22;8136;53.172;8.256;2023-07-20T05:22:59;15.50;99.90
16064;DHT22;8136;53.172;8.256;2023-07-20T05:25:26;15.50;99.90
16064;DHT22;8136;53.172;8.256;2023-07-20T05:27:55;15.60;99.90
16064;DHT22;8136;53.172;8.256;2023-07-20T05:30:21;15.60;99.90
16064;DHT22;8136;53.172;8.256;2023-07-20T05:32:50;15.70;99.90
16064;DHT22;8136;53.172;8.256;2023-07-20T05:35:19;15.70;99.90
16064;DHT22;8136;53.172;8.256;2023-07-20T05:37:46;15.70;99.90
16064;DHT22;8136;53.172;8.256;2023-07-20T05:40:13;15.80;99.90
16064;DHT22;8136;53.172;8.256;2023-07-20T05:42:44;15.90;99.90
16064;DHT22;8136;53.172;8.256;2023-07-20T05:45:11;15.90;99.90
16064;DHT22;8136;53.172;8.256;2023-07-20T05:47:38;16.00;99.90
16064;DHT22;8136;53.172;8.256;2023-07-20T05:50:06;16.00;99.90
16064;DHT22;8136;53.172;8.256;2023-07-20T05:52:33;16.10;99.90
16064;DHT22;8136;53.172;8.256;2023-07-20T05:55:00;16.20;99.90
16064;DHT22;8136;53.172;8.256;2023-07-20T05:57:27;16.20;99.90
16064;DHT22;8136;53.172;8.256;2023-07-20T05:59:54;16.20;99.90
16064;DHT22;8136;53.172;8.256;2023-07-20T06:02:21;16.10;99.90
16064;DHT22;8136;53.172;8.256;2023-07-20T06:04:48;16.10;99.90
16064;DHT22;8136;53.172;8.256;2023-07-20T06:07:16;16.20;99.90
16064;DHT22;8136;53.172;8.256;2023-07-20T06:09:43;16.30;99.90
16064;DHT22;8136;53.172;8.256;2023-07-20T06:12:10;16.30;99.90
16064;DHT22;8136;53.172;8.256;2023-07-20T06:14:37;16.50;99.90
16064;DHT22;8136;53.172;8.256;2023-07-20T06:17:05;16.50;99.90
16064;DHT22;8136;53.172;8.256;2023-07-20T06:19:32;16.60;99.90
16064;DHT22;8136;53.172;8.256;2023-07-20T06:22:02;16.70;99.90
16064;DHT22;8136;53.172;8.256;2023-07-20T06:24:31;16.80;99.90
16064;DHT22;8136;53.172;8.256;2023-07-20T06:26:58;16.90;99.90
16064;DHT22;8136;53.172;8.256;2023-07-20T06:29:26;17.00;99.90
16064;DHT22;8136;53.172;8.256;2023-07-20T06:31:53;17.10;99.90
16064;DHT22;8136;53.172;8.256;2023-07-20T06:34:21;17.20;99.90
16064;DHT22;8136;53.172;8.256;2023-07-20T06:36:51;17.10;99.90
16064;DHT22;8136;53.172;8.256;2023-07-20T06:39:17;17.20;99.90
16064;DHT22;8136;53.172;8.256;2023-07-20T06:41:47;17.20;99.90
16064;DHT22;8136;53.172;8.256;2023-07-20T06:44:14;17.30;99.90
16064;DHT22;8136;53.172;8.256;2023-07-20T06:46:41;17.30;99.90
16064;DHT22;8136;53.172;8.256;2023-07-20T06:49:08;17.20;99.90
16064;DHT22;8136;53.172;8.256;2023-07-20T06:51:34;17.30;99.90
16064;DHT22;8136;53.172;8.256;2023-07-20T06:54:01;17.30;99.90
16064;DHT22;8136;53.172;8.256;2023-07-20T06:56:30;17.40;99.90
16064;DHT22;8136;53.172;8.256;2023-07-20T06:58:58;17.40;99.90
16064;DHT22;8136;53.172;8.256;2023-07-20T07:01:25;17.50;99.90
16064;DHT22;8136;53.172;8.256;2023-07-20T07:03:51;17.50;99.90
16064;DHT22;8136;53.172;8.256;2023-07-20T07:06:18;17.40;99.90
16064;DHT22;8136;53.172;8.256;2023-07-20T07:08:46;17.50;99.90
16064;DHT22;8136;53.172;8.256;2023-07-20T07:11:13;17.70;99.90
16064;DHT22;8136;53.172;8.256;2023-07-20T07:13:40;17.70;99.90
16064;DHT22;8136;53.172;8.256;2023-07-20T07:16:08;17.80;99.90
16064;DHT22;8136;53.172;8.256;2023-07-20T07:18:34;17.80;99.90
16064;DHT22;8136;53.172;8.256;2023-07-20T07:21:01;17.80;99.90
16064;DHT22;8136;53.172;8.256;2023-07-20T07:23:28;17.80;99.90
16064;DHT22;8136;53.172;8.256;2023-07-20T07:25:55;17.90;99.90
16064;DHT22;8136;53.172;8.256;2023-07-20T07:28:21;18.00;99.90
16064;DHT22;8136;53.172;8.256;2023-07-20T07:30:48;18.10;99.90
16064;DHT22;8136;53.172;8.256;2023-07-20T07:33:16;18.10;99.90
16064;DHT22;8136;53.172;8.256;2023-07-20T07:35:43;18.00;99.90
16064;DHT22;8136;53.172;8.256;2023-07-20T07:38:10;18.00;99.90
16064;DHT22;8136;53.172;8.256;2023-07-20T07:40:37;17.80;99.90
16064;DHT22;8136;53.172;8.256;2023-07-20T07:43:03;17.80;99.90
16064;DHT22;8136;53.172;8.256;2023-07-20T07:45:31;18.00;99.90
16064;DHT22;8136;53.172;8.256;2023-07-20T07:47:58;18.10;99.90
16064;DHT22;8136;53.172;8.256;2023-07-20T07:50:26;18.20;99.90
16064;DHT22;8136;53.172;8.256;2023-07-20T07:52:54;18.30;99.90
16064;DHT22;8136;53.172;8.256;2023-07-20T07:55:20;18.50;99.90
16064;DHT22;8136;53.172;8.256;2023-07-20T07:57:47;18.40;99.90
16064;DHT22;8136;53.172;8.256;2023-07-20T08:00:15;18.30;99.90
16064;DHT22;8136;53.172;8.256;2023-07-20T08:02:45;18.10;99.90
16064;DHT22;8136;53.172;8.256;2023-07-20T08:05:11;18.00;99.90
16064;DHT22;8136;53.172;8.256;2023-07-20T08:07:40;17.90;99.90
16064;DHT22;8136;53.172;8.256;2023-07-20T08:10:07;18.00;99.90
16064;DHT22;8136;53.172;8.256;2023-07-20T08:12:34;18.10;99.90
16064;DHT22;8136;53.172;8.256;2023-07-20T08:15:02;18.20;99.90
16064;DHT22;8136;53.172;8.256;2023-07-20T08:17:29;18.20;99.90
16064;DHT22;8136;53.172;8.256;2023-07-20T08:19:56;18.40;99.90
16064;DHT22;8136;53.172;8.256;2023-07-20T08:22:23;18.40;99.90
16064;DHT22;8136;53.172;8.256;2023-07-20T08:24:51;18.30;99.90
16064;DHT22;8136;53.172;8.256;2023-07-20T08:27:17;18.40;99.90
16064;DHT22;8136;53.172;8.256;2023-07-20T08:29:44;18.50;99.90
16064;DHT22;8136;53.172;8.256;2023-07-20T08:32:11;18.60;99.90
16064;DHT22;8136;53.172;8.256;2023-07-20T08:34:39;18.70;99.90
16064;DHT22;8136;53.172;8.256;2023-07-20T08:37:06;18.80;99.90
16064;DHT22;8136;53.172;8.256;2023-07-20T08:39:35;18.80;99.90
16064;DHT22;8136;53.172;8.256;2023-07-20T08:42:04;18.90;99.90
16064;DHT22;8136;53.172;8.256;2023-07-20T08:44:33;18.90;99.90
16064;DHT22;8136;53.172;8.256;2023-07-20T08:47:00;18.90;99.90
16064;DHT22;8136;53.172;8.256;2023-07-20T08:49:29;19.10;99.90
16064;DHT22;8136;53.172;8.256;2023-07-20T08:51:58;19.20;99.90
16064;DHT22;8136;53.172;8.256;2023-07-20T08:54:29;19.20;99.90
16064;DHT22;8136;53.172;8.256;2023-07-20T08:56:58;19.20;99.90
16064;DHT22;8136;53.172;8.256;2023-07-20T08:59:29;19.10;99.90
16064;DHT22;8136;53.172;8.256;2023-07-20T09:01:56;19.10;99.90
16064;DHT22;8136;53.172;8.256;2023-07-20T09:04:24;19.00;99.90
16064;DHT22;8136;53.172;8.256;2023-07-20T09:06:51;19.00;99.90
16064;DHT22;8136;53.172;8.256;2023-07-20T09:09:18;18.90;99.90
16064;DHT22;8136;53.172;8.256;2023-07-20T09:11:48;18.90;99.90
16064;DHT22;8136;53.172;8.256;2023-07-20T09:14:16;18.90;99.90
16064;DHT22;8136;53.172;8.256;2023-07-20T09:16:52;18.80;99.90
16064;DHT22;8136;53.172;8.256;2023-07-20T09:19:20;18.60;99.90
16064;DHT22;8136;53.172;8.256;2023-07-20T09:21:48;18.50;99.90
16064;DHT22;8136;53.172;8.256;2023-07-20T09:24:16;18.40;99.90
16064;DHT22;8136;53.172;8.256;2023-07-20T09:26:44;18.30;99.90
16064;DHT22;8136;53.172;8.256;2023-07-20T09:29:13;18.20;99.90
16064;DHT22;8136;53.172;8.256;2023-07-20T09:31:40;18.40;99.90
16064;DHT22;8136;53.172;8.256;2023-07-20T09:34:08;18.60;99.90
16064;DHT22;8136;53.172;8.256;2023-07-20T09:36:36;18.80;99.90
16064;DHT22;8136;53.172;8.256;2023-07-20T09:39:05;19.00;99.90
16064;DHT22;8136;53.172;8.256;2023-07-20T09:41:39;19.20;99.90
16064;DHT22;8136;53.172;8.256;2023-07-20T09:44:10;19.40;99.90
16064;DHT22;8136;53.172;8.256;2023-07-20T09:46:45;19.60;99.90
16064;DHT22;8136;53.172;8.256;2023-07-20T09:49:14;19.70;99.90
16064;DHT22;8136;53.172;8.256;2023-07-20T09:51:41;19.80;99.90
16064;DHT22;8136;53.172;8.256;2023-07-20T09:54:09;19.70;99.90
16064;DHT22;8136;53.172;8.256;2023-07-20T09:56:36;19.80;99.90
16064;DHT22;8136;53.172;8.256;2023-07-20T09:59:04;19.60;99.90
16064;DHT22;8136;53.172;8.256;2023-07-20T10:01:57;19.50;99.90
16064;DHT22;8136;53.172;8.256;2023-07-20T10:04:42;19.30;99.90
16064;DHT22;8136;53.172;8.256;2023-07-20T10:07:22;19.20;99.90
16064;DHT22;8136;53.172;8.256;2023-07-20T10:10:02;19.20;99.90
16064;DHT22;8136;53.172;8.256;2023-07-20T10:12:33;19.10;99.90
16064;DHT22;8136;53.172;8.256;2023-07-20T10:15:15;19.30;99.90
16064;DHT22;8136;53.172;8.256;2023-07-20T10:17:57;19.50;99.90
16064;DHT22;8136;53.172;8.256;2023-07-20T10:20:45;19.60;99.90
16064;DHT22;8136;53.172;8.256;2023-07-20T10:39:26;20.10;99.90
16064;DHT22;8136;53.172;8.256;2023-07-20T10:42:00;20.00;99.90
16064;DHT22;8136;53.172;8.256;2023-07-20T10:44:28;20.10;99.90
16064;DHT22;8136;53.172;8.256;2023-07-20T10:46:59;20.20;99.90
16064;DHT22;8136;53.172;8.256;2023-07-20T10:49:27;20.40;99.90
16064;DHT22;8136;53.172;8.256;2023-07-20T10:51:57;20.50;99.90
16064;DHT22;8136;53.172;8.256;2023-07-20T10:54:50;20.50;99.90
16064;DHT22;8136;53.172;8.256;2023-07-20T11:00:59;20.50;99.90
16064;DHT22;8136;53.172;8.256;2023-07-20T11:03:30;20.70;99.90
16064;DHT22;8136;53.172;8.256;2023-07-20T11:06:31;20.90;99.90
16064;DHT22;8136;53.172;8.256;2023-07-20T11:09:08;20.90;99.90
16064;DHT22;8136;53.172;8.256;2023-07-20T11:11:43;21.00;99.90
16064;DHT22;8136;53.172;8.256;2023-07-20T11:14:59;21.00;99.90
16064;DHT22;8136;53.172;8.256;2023-07-20T11:18:45;21.10;99.90
16064;DHT22;8136;53.172;8.256;2023-07-20T11:21:37;21.30;99.90
16064;DHT22;8136;53.172;8.256;2023-07-20T11:24:14;21.50;99.90
16064;DHT22;8136;53.172;8.256;2023-07-20T11:27:01;21.60;99.90
16064;DHT22;8136;53.172;8.256;2023-07-20T11:29:41;21.60;99.90
16064;DHT22;8136;53.172;8.256;2023-07-20T11:32:10;21.60;99.90
16064;DHT22;8136;53.172;8.256;2023-07-20T11:34:40;21.50;99.90
16064;DHT22;8136;53.172;8.256;2023-07-20T11:37:07;21.40;99.90
16064;DHT22;8136;53.172;8.256;2023-07-20T11:39:34;21.20;99.90
16064;DHT22;8136;53.172;8.256;2023-07-20T11:42:03;21.00;99.90
16064;DHT22;8136;53.172;8.256;2023-07-20T11:44:29;20.90;99.90
16064;DHT22;8136;53.172;8.256;2023-07-20T11:47:08;21.00;99.90
16064;DHT22;8136;53.172;8.256;2023-07-20T11:49:37;21.20;99.90
16064;DHT22;8136;53.172;8.256;2023-07-20T11:52:05;21.40;99.90
16064;DHT22;8136;53.172;8.256;2023-07-20T11:54:32;21.50;99.90
16064;DHT22;8136;53.172;8.256;2023-07-20T11:57:02;21.70;99.90
16064;DHT22;8136;53.172;8.256;2023-07-20T11:59:35;21.80;99.90
16064;DHT22;8136;53.172;8.256;2023-07-20T12:02:02;22.00;99.90
16064;DHT22;8136;53.172;8.256;2023-07-20T12:04:30;21.90;99.90
16064;DHT22;8136;53.172;8.256;2023-07-20T12:06:57;21.80;99.90
16064;DHT22;8136;53.172;8.256;2023-07-20T12:09:24;21.90;99.90
16064;DHT22;8136;53.172;8.256;2023-07-20T12:11:51;22.00;99.90
16064;DHT22;8136;53.172;8.256;2023-07-20T12:14:25;21.90;99.90
16064;DHT22;8136;53.172;8.256;2023-07-20T12:16:53;21.80;99.90
16064;DHT22;8136;53.172;8.256;2023-07-20T12:19:20;21.80;99.90
16064;DHT22;8136;53.172;8.256;2023-07-20T12:21:47;21.80;99.90
16064;DHT22;8136;53.172;8.256;2023-07-20T12:24:14;21.90;99.90
16064;DHT22;8136;53.172;8.256;2023-07-20T12:26:41;22.10;99.90
16064;DHT22;8136;53.172;8.256;2023-07-20T12:29:08;22.10;99.90
16064;DHT22;8136;53.172;8.256;2023-07-20T12:31:43;21.90;99.90
16064;DHT22;8136;53.172;8.256;2023-07-20T12:34:21;21.90;99.90
16064;DHT22;8136;53.172;8.256;2023-07-20T12:36:48;22.10;99.90
16064;DHT22;8136;53.172;8.256;2023-07-20T12:39:15;22.00;99.90
16064;DHT22;8136;53.172;8.256;2023-07-20T12:41:41;22.00;99.90
16064;DHT22;8136;53.172;8.256;2023-07-20T12:44:22;22.30;99.90
16064;DHT22;8136;53.172;8.256;2023-07-20T12:46:51;22.40;99.90
16064;DHT22;8136;53.172;8.256;2023-07-20T12:49:17;22.50;99.90
16064;DHT22;8136;53.172;8.256;2023-07-20T12:51:45;22.50;99.90
16064;DHT22;8136;53.172;8.256;2023-07-20T12:54:12;22.60;99.90
16064;DHT22;8136;53.172;8.256;2023-07-20T12:56:39;22.70;99.90
16064;DHT22;8136;53.172;8.256;2023-07-20T12:59:05;22.90;99.90
16064;DHT22;8136;53.172;8.256;2023-07-20T13:01:32;23.10;99.90
16064;DHT22;8136;53.172;8.256;2023-07-20T13:04:01;23.10;99.90
16064;DHT22;8136;53.172;8.256;2023-07-20T13:06:28;23.30;99.90
16064;DHT22;8136;53.172;8.256;2023-07-20T13:08:55;23.50;99.90
16064;DHT22;8136;53.172;8.256;2023-07-20T13:11:23;23.70;99.90
16064;DHT22;8136;53.172;8.256;2023-07-20T13:13:50;23.70;99.90
16064;DHT22;8136;53.172;8.256;2023-07-20T13:16:17;23.40;99.90
16064;DHT22;8136;53.172;8.256;2023-07-20T13:18:44;22.90;99.90
16064;DHT22;8136;53.172;8.256;2023-07-20T13:21:12;22.50;99.90
16064;DHT22;8136;53.172;8.256;2023-07-20T13:23:39;22.20;99.90
16064;DHT22;8136;53.172;8.256;2023-07-20T13:26:06;22.10;99.90
16064;DHT22;8136;53.172;8.256;2023-07-20T13:28:33;22.30;99.90
16064;DHT22;8136;53.172;8.256;2023-07-20T13:31:00;22.60;99.90
16064;DHT22;8136;53.172;8.256;2023-07-20T13:33:27;23.00;99.90
16064;DHT22;8136;53.172;8.256;2023-07-20T13:35:55;23.30;99.90
16064;DHT22;8136;53.172;8.256;2023-07-20T13:38:23;23.50;99.90
16064;DHT22;8136;53.172;8.256;2023-07-20T13:40:50;23.70;99.90
16064;DHT22;8136;53.172;8.256;2023-07-20T13:43:17;24.00;99.90
16064;DHT22;8136;53.172;8.256;2023-07-20T13:45:44;23.70;99.90
16064;DHT22;8136;53.172;8.256;2023-07-20T13:48:11;23.60;99.90
16064;DHT22;8136;53.172;8.256;2023-07-20T13:50:38;23.50;99.90
16064;DHT22;8136;53.172;8.256;2023-07-20T13:53:06;23.70;99.90
16064;DHT22;8136;53.172;8.256;2023-07-20T13:55:34;23.80;99.90
16064;DHT22;8136;53.172;8.256;2023-07-20T13:58:03;24.00;99.90
16064;DHT22;8136;53.172;8.256;2023-07-20T14:00:31;24.10;99.90
16064;DHT22;8136;53.172;8.256;2023-07-20T14:02:58;24.40;99.90
16064;DHT22;8136;53.172;8.256;2023-07-20T14:05:25;24.60;99.90
16064;DHT22;8136;53.172;8.256;2023-07-20T14:07:59;24.50;99.90
16064;DHT22;8136;53.172;8.256;2023-07-20T14:10:26;24.40;99.90
16064;DHT22;8136;53.172;8.256;2023-07-20T14:12:54;24.40;99.90
16064;DHT22;8136;53.172;8.256;2023-07-20T14:15:21;24.30;99.90
16064;DHT22;8136;53.172;8.256;2023-07-20T14:17:48;24.00;99.90
16064;DHT22;8136;53.172;8.256;2023-07-20T14:20:15;23.80;99.90
16064;DHT22;8136;53.172;8.256;2023-07-20T14:22:42;23.70;99.90
16064;DHT22;8136;53.172;8.256;2023-07-20T14:25:10;23.80;99.90
16064;DHT22;8136;53.172;8.256;2023-07-20T14:27:37;24.00;99.90
16064;DHT22;8136;53.172;8.256;2023-07-20T14:30:06;24.20;99.90
16064;DHT22;8136;53.172;8.256;2023-07-20T14:32:34;24.10;99.90
16064;DHT22;8136;53.172;8.256;2023-07-20T14:35:01;23.80;99.90
16064;DHT22;8136;53.172;8.256;2023-07-20T14:37:30;23.50;99.90
16064;DHT22;8136;53.172;8.256;2023-07-20T14:39:57;23.30;99.90
16064;DHT22;8136;53.172;8.256;2023-07-20T14:42:24;23.20;99.90
16064;DHT22;8136;53.172;8.256;2023-07-20T14:44:51;23.20;99.90
16064;DHT22;8136;53.172;8.256;2023-07-20T14:47:19;23.10;99.90
16064;DHT22;8136;53.172;8.256;2023-07-20T14:49:47;23.10;99.90
16064;DHT22;8136;53.172;8.256;2023-07-20T14:52:14;23.00;99.90
16064;DHT22;8136;53.172;8.256;2023-07-20T14:54:41;22.90;99.90
16064;DHT22;8136;53.172;8.256;2023-07-20T14:57:07;22.90;99.90
16064;DHT22;8136;53.172;8.256;2023-07-20T14:59:39;22.80;99.90
16064;DHT22;8136;53.172;8.256;2023-07-20T15:02:06;22.70;99.90
16064;DHT22;8136;53.172;8.256;2023-07-20T15:04:34;22.70;99.90
16064;DHT22;8136;53.172;8.256;2023-07-20T15:07:01;22.80;99.90
16064;DHT22;8136;53.172;8.256;2023-07-20T15:09:28;22.70;99.90
16064;DHT22;8136;53.172;8.256;2023-07-20T15:11:55;22.70;99.90
16064;DHT22;8136;53.172;8.256;2023-07-20T15:14:24;22.80;99.90
16064;DHT22;8136;53.172;8.256;2023-07-20T15:16:51;22.70;99.90
16064;DHT22;8136;53.172;8.256;2023-07-20T15:19:18;22.50;99.90
16064;DHT22;8136;53.172;8.256;2023-07-20T15:21:46;22.20;99.90
16064;DHT22;8136;53.172;8.256;2023-07-20T15:24:13;22.00;99.90
16064;DHT22;8136;53.172;8.256;2023-07-20T15:26:40;22.00;99.90
16064;DHT22;8136;53.172;8.256;2023-07-20T15:29:11;22.00;99.90
16064;DHT22;8136;53.172;8.256;2023-07-20T17:49:08;20.00;99.90
16064;DHT22;8136;53.172;8.256;2023-07-20T17:51:36;19.90;99.90
16064;DHT22;8136;53.172;8.256;2023-07-20T17:54:03;19.90;99.90
16064;DHT22;8136;53.172;8.256;2023-07-20T17:56:30;19.90;99.90
16064;DHT22;8136;53.172;8.256;2023-07-20T17:58:58;19.90;99.90
16064;DHT22;8136;53.172;8.256;2023-07-20T18:03:53;19.80;99.90
16064;DHT22;8136;53.172;8.256;2023-07-20T18:06:21;19.70;99.90
16064;DHT22;8136;53.172;8.256;2023-07-20T18:08:48;19.50;99.90
16064;DHT22;8136;53.172;8.256;2023-07-20T18:11:14;19.40;99.90
16064;DHT22;8136;53.172;8.256;2023-07-20T18:13:41;19.30;99.90
16064;DHT22;8136;53.172;8.256;2023-07-20T18:16:08;19.30;99.90
16064;DHT22;8136;53.172;8.256;2023-07-20T18:18:35;19.30;99.90
16064;DHT22;8136;53.172;8.256;2023-07-20T18:21:02;19.20;99.90
16064;DHT22;8136;53.172;8.256;2023-07-20T18:23:30;19.30;99.90
16064;DHT22;8136;53.172;8.256;2023-07-20T18:25:56;19.30;99.90
16064;DHT22;8136;53.172;8.256;2023-07-20T18:28:23;19.20;99.90
16064;DHT22;8136;53.172;8.256;2023-07-20T18:30:50;19.30;99.90
16064;DHT22;8136;53.172;8.256;2023-07-20T18:33:17;19.20;99.90
16064;DHT22;8136;53.172;8.256;2023-07-20T18:35:44;19.10;99.90